createdAt,value
2023-01-28T00:01:31.711Z,97317.45
2023-01-28T00:04:00.411Z,97315.10
2023-01-28T00:06:28.701Z,97317.70
2023-01-28T00:08:57.129Z,97315.89
2023-01-28T00:11:25.015Z,97317.94
2023-01-28T00:13:57.761Z,97317.34
2023-01-28T00:16:27.773Z,97317.52
2023-01-28T00:18:55.959Z,97318.61
2023-01-28T00:21:23.894Z,97322.85
2023-01-28T00:23:56.061Z,97321.08
2023-01-28T00:26:27.909Z,97321.17
2023-01-28T00:28:55.891Z,97321.21
2023-01-28T00:31:30.245Z,97320.47
2023-01-28T00:34:01.364Z,97322.54
2023-01-28T00:36:29.500Z,97323.15
2023-01-28T00:38:59.574Z,97323.52
2023-01-28T00:41:29.881Z,97322.32
2023-01-28T00:44:02.867Z,97324.51
2023-01-28T00:46:32.162Z,97323.08
2023-01-28T00:49:00.266Z,97324.37
2023-01-28T00:51:28.290Z,97327.70
2023-01-28T00:53:56.317Z,97330.67
2023-01-28T00:56:24.561Z,97330.71
2023-01-28T00:58:52.966Z,97329.96
2023-01-28T01:01:24.302Z,97329.92
2023-01-28T01:04:03.360Z,97331.13
2023-01-28T01:06:35.636Z,97328.81
2023-01-28T01:09:08.098Z,97330.55
2023-01-28T01:11:37.153Z,97331.85
2023-01-28T01:14:07.004Z,97329.60
2023-01-28T01:16:36.307Z,97332.89
2023-01-28T01:19:04.892Z,97328.07
2023-01-28T01:21:33.024Z,97331.20
2023-01-28T01:24:01.137Z,97334.06
2023-01-28T01:26:29.122Z,97337.73
2023-01-28T01:28:58.680Z,97337.23
2023-01-28T01:31:26.701Z,97334.51
2023-01-28T01:33:56.943Z,97331.02
2023-01-28T01:36:27.226Z,97336.12
2023-01-28T01:38:56.328Z,97339.59
2023-01-28T01:41:24.547Z,97340.26
2023-01-28T01:43:57.359Z,97342.63
2023-01-28T01:46:48.153Z,97341.89
2023-01-28T01:49:26.014Z,97346.48
2023-01-28T01:52:17.013Z,97344.25
2023-01-28T01:54:48.395Z,97342.21
2023-01-28T01:57:21.519Z,97340.79
2023-01-28T01:59:49.681Z,97343.89
2023-01-28T02:02:18.899Z,97342.34
2023-01-28T02:04:46.910Z,97341.05
2023-01-28T02:07:20.001Z,97336.64
2023-01-28T02:09:48.013Z,97334.83
2023-01-28T02:12:24.375Z,97336.91
2023-01-28T02:14:57.419Z,97342.98
2023-01-28T02:17:27.211Z,97347.13
2023-01-28T02:19:59.851Z,97351.66
2023-01-28T02:22:47.836Z,97347.39
2023-01-28T02:25:31.482Z,97348.11
2023-01-28T02:28:18.465Z,97346.59
2023-01-28T02:30:59.638Z,97345.98
2023-01-28T02:33:42.291Z,97343.59
2023-01-28T02:36:23.973Z,97346.27
2023-01-28T02:38:53.611Z,97344.14
2023-01-28T02:41:29.184Z,97346.78
2023-01-28T02:43:57.252Z,97346.45
2023-01-28T02:46:43.854Z,97341.52
2023-01-28T02:49:35.096Z,97339.43
2023-01-28T02:52:10.066Z,97338.94
2023-01-28T02:55:00.697Z,97337.73
2023-01-28T02:57:52.287Z,97336.94
2023-01-28T03:00:24.264Z,97332.44
2023-01-28T03:03:02.960Z,97330.45
2023-01-28T03:06:03.436Z,97333.65
2023-01-28T03:09:08.296Z,97335.48
2023-01-28T03:11:59.850Z,97332.71
2023-01-28T03:14:49.521Z,97336.61
2023-01-28T03:17:56.927Z,97342.17
2023-01-28T03:20:47.835Z,97337.80
2023-01-28T03:23:45.406Z,97338.45
2023-01-28T03:26:33.932Z,97341.96
2023-01-28T03:29:27.084Z,97341.63
2023-01-28T03:32:16.121Z,97338.55
2023-01-28T03:35:05.024Z,97340.13
2023-01-28T03:37:35.226Z,97341.00
2023-01-28T03:40:23.474Z,97339.15
2023-01-28T03:42:52.579Z,97341.66
2023-01-28T03:45:51.653Z,97344.69
2023-01-28T03:48:21.024Z,97347.10
2023-01-28T03:50:49.637Z,97348.15
2023-01-28T03:53:18.968Z,97349.70
2023-01-28T03:55:50.379Z,97351.92
2023-01-28T03:58:20.011Z,97347.00
2023-01-28T04:00:48.312Z,97349.62
2023-01-28T04:03:18.858Z,97353.45
2023-01-28T04:06:02.722Z,97352.49
2023-01-28T04:08:52.964Z,97356.85
2023-01-28T04:11:30.678Z,97361.02
2023-01-28T04:14:01.091Z,97365.93
2023-01-28T04:16:37.777Z,97365.10
2023-01-28T04:19:05.842Z,97369.13
2023-01-28T04:21:34.901Z,97372.59
2023-01-28T04:24:04.280Z,97374.95
2023-01-28T04:26:32.435Z,97376.55
2023-01-28T04:29:00.582Z,97375.39
2023-01-28T04:31:28.533Z,97379.24
2023-01-28T04:34:14.879Z,97380.50
2023-01-28T04:37:15.568Z,97382.71
2023-01-28T04:40:04.323Z,97386.89
2023-01-28T04:42:55.302Z,97385.14
2023-01-28T04:45:58.490Z,97387.30
2023-01-28T04:48:52.678Z,97388.83
2023-01-28T04:51:52.909Z,97388.95
2023-01-28T04:54:46.950Z,97394.57
2023-01-28T04:57:15.930Z,97394.39
2023-01-28T04:59:44.003Z,97395.07
2023-01-28T05:02:12.075Z,97395.67
2023-01-28T05:04:40.657Z,97397.58
2023-01-28T05:07:10.965Z,97400.21
2023-01-28T05:09:39.010Z,97404.03
2023-01-28T05:12:07.274Z,97409.13
2023-01-28T05:14:37.818Z,97407.48
2023-01-28T05:17:08.197Z,97408.81
2023-01-28T05:19:36.695Z,97410.64
2023-01-28T05:22:06.484Z,97410.94
2023-01-28T05:24:46.076Z,97410.95
2023-01-28T05:27:15.133Z,97411.30
2023-01-28T05:29:47.211Z,97410.45
2023-01-28T05:32:15.235Z,97416.05
2023-01-28T05:34:43.227Z,97415.03
2023-01-28T05:37:13.975Z,97420.65
2023-01-28T05:39:42.443Z,97423.39
2023-01-28T05:42:10.580Z,97429.83
2023-01-28T05:44:43.717Z,97427.00
2023-01-28T05:47:31.691Z,97427.97
2023-01-28T05:50:17.372Z,97430.67
2023-01-28T05:53:07.317Z,97429.82
2023-01-28T05:55:36.463Z,97433.04
2023-01-28T05:58:04.965Z,97438.65
2023-01-28T06:00:33.356Z,97439.45
2023-01-28T06:03:01.904Z,97438.93
2023-01-28T06:05:30.667Z,97439.43
2023-01-28T06:07:58.878Z,97443.30
2023-01-28T06:10:27.156Z,97443.67
2023-01-28T06:12:55.786Z,97446.39
2023-01-28T06:15:29.854Z,97451.69
2023-01-28T06:18:03.738Z,97455.02
2023-01-28T06:20:34.695Z,97459.66
2023-01-28T06:23:03.484Z,97462.84
2023-01-28T06:25:31.398Z,97466.91
2023-01-28T06:28:04.598Z,97479.61
2023-01-28T06:30:32.587Z,97480.05
2023-01-28T06:33:00.647Z,97485.72
2023-01-28T06:35:28.725Z,97489.21
2023-01-28T06:37:56.990Z,97487.48
2023-01-28T06:40:26.073Z,97485.11
2023-01-28T06:42:54.317Z,97483.95
2023-01-28T06:45:22.469Z,97483.17
2023-01-28T06:47:50.441Z,97487.50
2023-01-28T06:50:18.678Z,97490.30
2023-01-28T06:52:46.664Z,97491.55
2023-01-28T06:55:15.521Z,97493.16
2023-01-28T06:57:46.323Z,97495.09
2023-01-28T07:00:16.974Z,97499.02
2023-01-28T07:02:45.316Z,97499.21
2023-01-28T07:05:13.433Z,97501.10
2023-01-28T07:07:42.308Z,97502.89
2023-01-28T07:10:11.393Z,97509.54
2023-01-28T07:12:40.040Z,97512.21
2023-01-28T07:15:11.109Z,97517.52
2023-01-28T07:17:41.497Z,97520.37
2023-01-28T07:20:15.148Z,97521.98
2023-01-28T07:22:44.791Z,97523.30
2023-01-28T07:25:14.298Z,97526.64
2023-01-28T07:27:53.467Z,97522.55
2023-01-28T07:30:22.209Z,97524.80
2023-01-28T07:32:54.706Z,97526.34
2023-01-28T07:35:23.135Z,97521.55
2023-01-28T07:38:01.417Z,97523.64
2023-01-28T07:40:29.946Z,97529.19
2023-01-28T07:42:58.348Z,97533.52
2023-01-28T07:45:30.638Z,97536.25
2023-01-28T07:48:04.956Z,97534.88
2023-01-28T07:50:35.586Z,97535.84
2023-01-28T07:53:09.789Z,97532.06
2023-01-28T07:55:38.944Z,97534.82
2023-01-28T07:58:08.829Z,97529.33
2023-01-28T08:00:38.139Z,97535.39
2023-01-28T08:03:16.783Z,97539.85
2023-01-28T08:05:47.407Z,97540.66
2023-01-28T08:08:16.604Z,97541.96
2023-01-28T08:10:50.341Z,97544.64
2023-01-28T08:13:20.938Z,97547.04
2023-01-28T08:15:49.193Z,97545.73
2023-01-28T08:18:17.742Z,97548.11
2023-01-28T08:20:47.427Z,97548.14
2023-01-28T08:23:18.846Z,97551.99
2023-01-28T08:25:48.748Z,97547.21
2023-01-28T08:28:17.949Z,97546.52
2023-01-28T08:30:46.897Z,97544.59
2023-01-28T08:33:16.475Z,97545.83
2023-01-28T08:35:50.065Z,97548.77
2023-01-28T08:38:20.788Z,97549.63
2023-01-28T08:40:55.607Z,97551.91
2023-01-28T08:43:24.222Z,97552.59
2023-01-28T08:45:52.550Z,97551.96
2023-01-28T08:48:21.249Z,97552.38
2023-01-28T08:50:50.967Z,97553.17
2023-01-28T08:53:20.310Z,97551.60
2023-01-28T08:55:48.422Z,97548.65
2023-01-28T08:58:18.233Z,97557.91
2023-01-28T09:00:46.909Z,97558.64
2023-01-28T09:03:15.423Z,97557.02
2023-01-28T09:05:43.734Z,97557.64
2023-01-28T09:08:15.402Z,97556.55
2023-01-28T09:10:43.959Z,97556.42
2023-01-28T09:13:15.852Z,97554.73
2023-01-28T09:15:45.724Z,97557.12
2023-01-28T09:18:14.005Z,97555.11
2023-01-28T09:20:42.801Z,97552.61
2023-01-28T09:23:12.022Z,97551.29
2023-01-28T09:25:40.478Z,97549.00
2023-01-28T09:28:09.264Z,97548.09
2023-01-28T09:30:39.170Z,97548.55
2023-01-28T09:33:08.577Z,97549.23
2023-01-28T09:35:38.971Z,97547.64
2023-01-28T09:38:07.386Z,97551.40
2023-01-28T09:40:44.267Z,97551.10
2023-01-28T09:43:31.763Z,97552.29
2023-01-28T09:46:06.957Z,97554.26
2023-01-28T09:48:41.776Z,97554.04
2023-01-28T09:51:18.755Z,97550.32
2023-01-28T09:53:53.702Z,97553.09
2023-01-28T09:56:28.987Z,97550.63
2023-01-28T09:59:17.982Z,97552.86
2023-01-28T10:02:26.860Z,97550.52
2023-01-28T10:04:54.867Z,97550.27
2023-01-28T10:07:45.555Z,97551.98
2023-01-28T10:10:22.732Z,97552.77
2023-01-28T10:13:04.831Z,97554.07
2023-01-28T10:15:38.990Z,97553.87
2023-01-28T10:18:17.750Z,97550.92
2023-01-28T10:20:56.176Z,97553.05
2023-01-28T10:23:40.052Z,97547.92
2023-01-28T10:26:21.850Z,97544.73
2023-01-28T10:28:56.434Z,97541.27
2023-01-28T10:31:32.523Z,97538.48
2023-01-28T10:34:01.598Z,97538.71
2023-01-28T10:36:30.119Z,97540.61
2023-01-28T10:38:58.820Z,97538.27
2023-01-28T10:41:27.628Z,97540.56
2023-01-28T10:43:58.652Z,97545.24
2023-01-28T10:46:34.268Z,97546.40
2023-01-28T10:49:20.796Z,97547.83
2023-01-28T10:51:52.483Z,97550.73
2023-01-28T10:54:30.266Z,97547.59
2023-01-28T10:57:02.712Z,97550.94
2023-01-28T10:59:35.101Z,97549.66
2023-01-28T11:02:07.707Z,97543.41
2023-01-28T11:04:36.407Z,97542.58
2023-01-28T11:07:16.197Z,97539.86
2023-01-28T11:09:50.514Z,97545.06
2023-01-28T11:12:31.163Z,97539.63
2023-01-28T11:15:06.487Z,97540.48
2023-01-28T11:17:39.208Z,97538.69
2023-01-28T11:20:26.077Z,97537.42
2023-01-28T11:22:55.452Z,97538.23
2023-01-28T11:25:26.336Z,97533.64
2023-01-28T11:27:55.650Z,97533.83
2023-01-28T11:30:27.783Z,97532.17
2023-01-28T11:33:03.116Z,97532.31
2023-01-28T11:35:32.023Z,97532.63
2023-01-28T11:38:01.903Z,97531.63
2023-01-28T11:40:30.167Z,97528.47
2023-01-28T11:43:06.440Z,97527.99
2023-01-28T11:45:57.537Z,97524.08
2023-01-28T11:49:10.377Z,97523.98
2023-01-28T11:51:47.300Z,97523.63
2023-01-28T11:54:34.299Z,97526.36
2023-01-28T11:57:15.137Z,97529.89
2023-01-28T12:00:00.744Z,97532.84
2023-01-28T12:02:39.690Z,97531.66
2023-01-28T12:05:22.202Z,97528.34
2023-01-28T12:08:05.441Z,97526.59
2023-01-28T12:11:12.175Z,97531.23
2023-01-28T12:13:48.837Z,97534.63
2023-01-28T12:16:55.269Z,97533.64
2023-01-28T12:19:32.569Z,97535.66
2023-01-28T12:22:24.598Z,97533.48
2023-01-28T12:25:15.495Z,97538.02
2023-01-28T12:28:08.853Z,97537.52
2023-01-28T12:31:17.129Z,97538.07
2023-01-28T12:34:03.893Z,97542.08
2023-01-28T12:36:48.075Z,97542.80
2023-01-28T12:39:16.160Z,97545.80
2023-01-28T12:42:09.025Z,97546.98
2023-01-28T12:44:43.601Z,97547.94
2023-01-28T12:47:18.167Z,97548.17
2023-01-28T12:49:53.687Z,97552.05
2023-01-28T12:52:35.314Z,97556.06
2023-01-28T12:55:21.617Z,97558.46
2023-01-28T12:57:52.133Z,97559.55
2023-01-28T13:00:28.765Z,97560.06
2023-01-28T13:03:27.067Z,97561.73
2023-01-28T13:06:07.403Z,97564.59
2023-01-28T13:08:35.482Z,97564.61
2023-01-28T13:11:05.436Z,97571.29
2023-01-28T13:13:36.332Z,97567.93
2023-01-28T13:16:07.777Z,97569.48
2023-01-28T13:18:45.312Z,97572.24
2023-01-28T13:21:25.831Z,97572.79
2023-01-28T13:24:02.723Z,97573.04
2023-01-28T13:26:47.744Z,97573.53
2023-01-28T13:29:15.812Z,97574.10
2023-01-28T13:31:52.507Z,97576.37
2023-01-28T13:34:40.668Z,97580.85
2023-01-28T13:37:30.220Z,97584.52
2023-01-28T13:40:09.355Z,97583.45
2023-01-28T13:42:37.715Z,97589.03
2023-01-28T13:45:15.476Z,97588.58
2023-01-28T13:47:48.846Z,97592.05
2023-01-28T13:50:24.001Z,97590.38
2023-01-28T13:52:59.457Z,97592.39
2023-01-28T13:55:43.664Z,97593.45
2023-01-28T13:58:52.023Z,97598.48
2023-01-28T14:01:51.621Z,97601.11
2023-01-28T14:04:42.110Z,97603.98
2023-01-28T14:07:14.289Z,97605.55
2023-01-28T14:10:08.530Z,97605.69
2023-01-28T14:12:49.568Z,97602.86
2023-01-28T14:16:06.253Z,97606.25
2023-01-28T14:18:39.235Z,97611.95
2023-01-28T14:21:17.305Z,97612.83
2023-01-28T14:23:52.026Z,97613.72
2023-01-28T14:26:45.296Z,97614.47
2023-01-28T14:29:25.857Z,97615.58
2023-01-28T14:31:55.087Z,97618.89
2023-01-28T14:34:29.723Z,97619.39
2023-01-28T14:37:03.150Z,97619.31
2023-01-28T14:39:38.941Z,97621.73
2023-01-28T14:42:17.041Z,97617.87
2023-01-28T14:44:46.701Z,97621.52
2023-01-28T14:47:41.540Z,97625.80
2023-01-28T14:51:00.671Z,97623.50
2023-01-28T14:53:48.668Z,97624.84
2023-01-28T14:56:56.100Z,97628.55
2023-01-28T14:59:41.611Z,97627.98
2023-01-28T15:02:18.168Z,97631.70
2023-01-28T15:04:46.963Z,97632.48
2023-01-28T15:07:17.935Z,97635.39
2023-01-28T15:09:47.149Z,97638.45
2023-01-28T15:12:18.340Z,97640.27
2023-01-28T15:14:48.894Z,97642.77
2023-01-28T15:17:26.537Z,97647.38
2023-01-28T15:19:57.258Z,97646.77
2023-01-28T15:22:28.852Z,97648.05
2023-01-28T15:24:57.136Z,97651.97
2023-01-28T15:27:29.975Z,97648.98
2023-01-28T15:30:00.374Z,97655.20
2023-01-28T15:32:31.520Z,97659.88
2023-01-28T15:35:01.292Z,97658.14
2023-01-28T15:37:29.485Z,97665.44
2023-01-28T15:40:06.546Z,97667.88
2023-01-28T15:42:35.159Z,97671.48
2023-01-28T15:45:04.681Z,97676.59
2023-01-28T15:47:35.456Z,97679.63
2023-01-28T15:50:08.694Z,97685.39
2023-01-28T15:52:39.538Z,97687.10
2023-01-28T15:55:29.889Z,97690.81
2023-01-28T15:58:08.566Z,97691.30
2023-01-28T16:00:36.848Z,97693.67
2023-01-28T16:03:10.766Z,97695.39
2023-01-28T16:05:42.174Z,97697.23
2023-01-28T16:08:37.296Z,97695.54
2023-01-28T16:11:06.700Z,97697.03
2023-01-28T16:13:35.638Z,97700.95
2023-01-28T16:16:05.545Z,97701.93
2023-01-28T16:18:50.847Z,97710.77
2023-01-28T16:21:26.260Z,97713.69
2023-01-28T16:24:07.122Z,97718.98
2023-01-28T16:26:37.453Z,97718.59
2023-01-28T16:29:17.120Z,97715.55
2023-01-28T16:31:45.246Z,97712.88
2023-01-28T16:34:17.050Z,97714.38
2023-01-28T16:36:47.274Z,97717.52
2023-01-28T16:39:15.363Z,97725.70
2023-01-28T16:41:48.789Z,97737.89
2023-01-28T16:44:17.505Z,97740.39
2023-01-28T16:46:45.648Z,97744.20
2023-01-28T16:49:15.146Z,97747.23
2023-01-28T16:51:44.138Z,97748.48
2023-01-28T16:54:15.974Z,97748.05
2023-01-28T16:56:46.551Z,97749.52
2023-01-28T16:59:16.483Z,97752.07
2023-01-28T17:01:45.306Z,97752.48
2023-01-28T17:04:13.983Z,97754.23
2023-01-28T17:06:44.873Z,97758.17
2023-01-28T17:09:14.781Z,97760.83
2023-01-28T17:11:43.722Z,97759.85
2023-01-28T17:14:12.057Z,97762.70
2023-01-28T17:16:40.650Z,97759.66
2023-01-28T17:19:08.910Z,97755.98
2023-01-28T17:21:37.114Z,97758.16
2023-01-28T17:24:05.836Z,97759.22
2023-01-28T17:26:35.561Z,97761.75
2023-01-28T17:29:06.608Z,97760.46
2023-01-28T17:31:35.989Z,97766.43
2023-01-28T17:34:07.197Z,97769.61
2023-01-28T17:36:36.511Z,97768.05
2023-01-28T17:39:07.552Z,97770.75
2023-01-28T17:41:35.691Z,97774.52
2023-01-28T17:44:04.681Z,97777.94
2023-01-28T17:46:32.692Z,97780.17
2023-01-28T17:49:02.282Z,97782.63
2023-01-28T17:51:30.404Z,97785.82
2023-01-28T17:53:58.613Z,97786.21
2023-01-28T17:56:28.964Z,97791.89
2023-01-28T17:59:06.639Z,97789.02
2023-01-28T18:01:37.255Z,97788.02
2023-01-28T18:04:05.612Z,97786.04
2023-01-28T18:06:37.702Z,97789.55
2023-01-28T18:09:07.144Z,97792.25
2023-01-28T18:11:36.878Z,97788.75
2023-01-28T18:14:05.893Z,97787.40
2023-01-28T18:16:34.585Z,97789.64
2023-01-28T18:19:02.881Z,97787.72
2023-01-28T18:21:52.282Z,97784.30
2023-01-28T18:24:24.506Z,97785.75
2023-01-28T18:26:55.557Z,97780.61
2023-01-28T18:29:24.565Z,97776.75
2023-01-28T18:31:55.307Z,97775.39
2023-01-28T18:34:25.985Z,97784.82
2023-01-28T18:36:55.620Z,97786.57
2023-01-28T18:39:25.730Z,97786.18
2023-01-28T18:41:57.579Z,97789.54
2023-01-28T18:44:27.723Z,97794.95
2023-01-28T18:46:57.385Z,97795.46
2023-01-28T18:49:25.483Z,97798.23
2023-01-28T18:51:54.198Z,97793.77
2023-01-28T18:54:23.214Z,97797.04
2023-01-28T18:56:51.443Z,97796.41
2023-01-28T18:59:19.743Z,97796.80
2023-01-28T19:01:48.986Z,97802.88
2023-01-28T19:04:20.004Z,97804.04
2023-01-28T19:06:48.440Z,97800.83
2023-01-28T19:09:17.526Z,97797.89
2023-01-28T19:11:46.587Z,97803.14
2023-01-28T19:14:15.307Z,97804.91
2023-01-28T19:16:44.335Z,97804.39
2023-01-28T19:19:12.839Z,97810.02
2023-01-28T19:21:41.094Z,97806.67
2023-01-28T19:24:14.178Z,97806.65
2023-01-28T19:26:44.941Z,97805.28
2023-01-28T19:29:15.759Z,97805.81
2023-01-28T19:31:44.795Z,97810.98
2023-01-28T19:34:13.214Z,97813.38
2023-01-28T19:36:42.529Z,97818.08
2023-01-28T19:39:12.318Z,97820.54
2023-01-28T19:41:40.647Z,97822.79
2023-01-28T19:44:10.048Z,97824.80
2023-01-28T19:46:38.113Z,97822.88
2023-01-28T19:49:06.487Z,97823.30
2023-01-28T19:51:35.151Z,97823.89
2023-01-28T19:54:03.544Z,97828.41
2023-01-28T19:56:31.821Z,97827.57
2023-01-28T19:58:59.774Z,97831.92
2023-01-28T20:01:30.233Z,97835.70
2023-01-28T20:04:00.337Z,97835.14
2023-01-28T20:06:30.877Z,97836.14
2023-01-28T20:09:02.331Z,97838.84
2023-01-28T20:11:30.635Z,97837.33
2023-01-28T20:13:59.849Z,97849.31
2023-01-28T20:16:31.772Z,97854.12
2023-01-28T20:19:05.868Z,97853.25
2023-01-28T20:21:34.758Z,97852.17
2023-01-28T20:24:04.848Z,97851.75
2023-01-28T20:26:37.431Z,97849.05
2023-01-28T20:29:08.470Z,97849.73
2023-01-28T20:31:38.390Z,97851.80
2023-01-28T20:34:07.565Z,97850.96
2023-01-28T20:36:35.607Z,97852.81
2023-01-28T20:39:05.747Z,97852.65
2023-01-28T20:41:36.502Z,97857.50
2023-01-28T20:44:04.781Z,97858.81
2023-01-28T20:46:34.183Z,97858.76
2023-01-28T20:49:06.207Z,97865.69
2023-01-28T20:51:36.038Z,97860.98
2023-01-28T20:54:04.726Z,97864.70
2023-01-28T20:56:32.799Z,97869.12
2023-01-28T20:59:05.454Z,97872.08
2023-01-28T21:01:35.382Z,97874.45
2023-01-28T21:04:07.593Z,97875.81
2023-01-28T21:06:36.947Z,97874.92
2023-01-28T21:09:05.225Z,97878.55
2023-01-28T21:11:34.472Z,97882.52
2023-01-28T21:14:02.473Z,97885.39
2023-01-28T21:16:30.642Z,97884.23
2023-01-28T21:18:58.637Z,97885.06
2023-01-28T21:21:28.905Z,97886.08
2023-01-28T21:23:59.987Z,97886.13
2023-01-28T21:26:28.773Z,97886.23
2023-01-28T21:28:57.064Z,97885.73
2023-01-28T21:31:26.528Z,97886.40
2023-01-28T21:33:57.196Z,97884.94
2023-01-28T21:36:26.067Z,97886.88
2023-01-28T21:38:56.482Z,97887.89
2023-01-28T21:41:24.951Z,97887.39
2023-01-28T21:43:55.793Z,97892.29
2023-01-28T21:46:29.905Z,97893.81
2023-01-28T21:49:00.130Z,97895.55
2023-01-28T21:51:45.942Z,97897.35
2023-01-28T21:54:16.989Z,97898.06
2023-01-28T21:56:49.710Z,97894.26
2023-01-28T21:59:28.401Z,97891.83
2023-01-28T22:02:09.811Z,97894.33
2023-01-28T22:04:44.044Z,97894.94
2023-01-28T22:07:16.971Z,97891.88
2023-01-28T22:09:46.704Z,97888.45
2023-01-28T22:12:15.758Z,97890.52
2023-01-28T22:14:44.334Z,97895.17
2023-01-28T22:17:12.643Z,97893.41
2023-01-28T22:19:47.675Z,97893.66
2023-01-28T22:22:21.597Z,97895.90
2023-01-28T22:24:51.041Z,97897.52
2023-01-28T22:27:19.805Z,97898.17
2023-01-28T22:29:47.731Z,97903.27
2023-01-28T22:32:15.694Z,97904.11
2023-01-28T22:34:46.696Z,97903.44
2023-01-28T22:37:15.941Z,97900.80
2023-01-28T22:39:43.954Z,97900.65
2023-01-28T22:42:12.207Z,97901.55
2023-01-28T22:44:40.268Z,97900.67
2023-01-28T22:47:08.236Z,97901.11
2023-01-28T22:49:36.983Z,97898.48
2023-01-28T22:52:05.153Z,97896.95
2023-01-28T22:54:33.698Z,97899.73
2023-01-28T22:57:01.731Z,97901.12
2023-01-28T22:59:29.956Z,97901.16
2023-01-28T23:01:58.462Z,97906.91
2023-01-28T23:04:26.430Z,97906.48
2023-01-28T23:06:54.809Z,97905.07
2023-01-28T23:09:22.833Z,97907.12
2023-01-28T23:11:51.231Z,97909.55
2023-01-28T23:14:38.788Z,97909.31
2023-01-28T23:17:25.425Z,97909.10
2023-01-28T23:20:14.746Z,97912.83
2023-01-28T23:23:02.047Z,97911.25
2023-01-28T23:25:30.437Z,97911.23
2023-01-28T23:27:58.470Z,97913.82
2023-01-28T23:30:26.847Z,97919.09
2023-01-28T23:32:57.743Z,97919.62
2023-01-28T23:35:26.160Z,97915.57
2023-01-28T23:37:55.716Z,97913.73
2023-01-28T23:40:25.261Z,97909.71
2023-01-28T23:42:56.468Z,97912.36
2023-01-28T23:45:26.829Z,97911.16
2023-01-28T23:47:54.783Z,97914.48
2023-01-28T23:50:23.286Z,97913.99
2023-01-28T23:52:51.414Z,97915.13
2023-01-28T23:55:19.400Z,97915.86
2023-01-28T23:57:47.355Z,97921.59
